Date,TemperatureHighF,TemperatureAvgF,TemperatureLowF,DewpointHighF,DewpointAvgF,DewpointLowF,HumidityHigh,HumidityAvg,HumidityLow,PressureMaxIn,PressureMinIn,WindSpeedMaxMPH,WindSpeedAvgMPH,GustSpeedMaxMPH,PrecipitationSumIn
2013-3-1,42.8,38.6,35.5,36.1,32.7,28.8,96,80,63,29.62,29.47,14,1,14,0.00
2013-3-2,43.3,38.0,33.5,32.6,29.7,28.3,82,72,58,29.63,29.57,11,1,11,0.00
2013-3-3,42.8,37.1,32.3,31.8,29.3,27.3,93,74,59,29.59,29.50,11,1,11,0.00
2013-3-4,40.5,35.0,29.5,30.2,26.4,23.1,92,71,56,29.67,29.52,20,2,20,0.00
2013-3-5,44.1,37.1,31.9,34.9,28.5,24.6,76,71,64,29.96,29.67,15,3,16,0.00
2013-3-6,40.3,37.5,35.7,36.6,35.3,32.7,100,92,76,30.01,29.90,30,4,30,0.18
2013-3-7,35.6,33.8,32.8,34.3,32.8,31.7,97,96,93,29.91,29.85,30,6,30,1.60
2013-3-8,38.2,33.4,32.0,35.7,32.2,30.8,99,96,75,30.04,29.82,19,3,19,0.16
2013-3-9,40.9,36.0,30.3,32.6,30.7,28.9,95,81,68,30.28,30.03,21,4,21,0.95
2013-3-10,42.8,36.0,30.0,34.9,32.1,28.7,96,86,70,30.35,30.27,12,1,12,0.27
2013-3-11,49.7,40.8,33.9,42.2,37.8,32.0,95,89,75,30.29,30.12,7,1,7,0.00
2013-3-12,54.9,49.8,42.4,53.0,48.6,41.3,99,96,89,30.13,29.69,12,2,12,1.12
2013-3-13,52.7,45.2,35.2,51.8,36.2,25.5,99,73,43,29.74,29.64,13,1,13,0.07
2013-3-14,36.7,32.2,24.9,29.1,20.6,8.7,84,63,47,29.79,29.66,23,2,23,0.00
2013-3-15,41.9,31.3,22.0,29.7,17.8,11.2,78,58,32,29.84,29.61,15,3,19,0.00
2013-3-16,40.1,33.5,29.6,29.6,22.7,10.9,78,66,32,29.82,29.64,9,1,11,0.00
2013-3-17,39.5,32.9,27.1,27.3,17.1,7.6,80,55,31,30.25,29.81,14,2,15,0.00
2013-3-18,38.6,27.2,20.9,25.9,10.5,2.7,79,49,38,30.41,30.18,10,2,13,0.00
2013-3-19,40.2,34.8,30.2,39.3,33.7,26.0,98,96,80,30.18,29.47,15,3,15,1.06
2013-3-20,41.2,33.5,28.8,30.9,23.8,20.0,94,69,47,29.77,29.62,14,3,14,0.02
2013-3-21,38.0,31.8,28.7,29.2,26.5,22.0,96,82,60,29.78,29.55,13,1,13,0.00
2013-3-22,40.5,33.3,25.9,29.5,24.7,19.6,96,72,47,29.71,29.55,12,1,12,0.28
2013-3-23,43.2,36.3,30.3,26.7,23.6,20.8,83,61,43,29.74,29.60,21,3,22,0.01
2013-3-24,49.8,38.4,31.2,30.6,25.8,21.8,86,62,40,29.79,29.67,12,2,12,0.00
2013-3-25,45.6,37.3,31.7,35.6,30.4,28.1,92,78,51,29.72,29.51,18,2,18,0.00
2013-3-26,49.0,37.3,33.0,33.9,31.2,25.7,94,81,41,29.73,29.43,14,2,19,0.07
2013-3-27,52.7,42.8,32.1,34.3,26.9,22.7,75,55,35,29.81,29.69,15,1,15,0.00
2013-3-28,47.2,41.9,36.9,37.3,34.2,29.8,95,75,51,29.97,29.80,15,2,15,0.03
2013-3-29,56.2,46.4,36.2,37.9,34.8,31.9,86,65,42,30.00,29.92,12,1,14,0.00
2013-3-30,56.4,46.1,36.6,36.7,32.6,22.6,94,62,28,30.05,29.96,16,1,16,0.00
2013-3-31,58.2,45.1,31.1,44.3,34.6,29.0,96,71,36,30.08,29.69,11,2,11,0.15